Terminal Aerodrome Forecast
Issued by NWS Brownsville, TX

Current Version | Previous Version | Text Only | Print | Product List | Glossary On
Versions: 1 2 3 4 5 6 7 8 9 10 11 12 13 14
535
FTUS44 KBRO 261132
TAFMFE
TAF
KMFE 261132Z 2612/2712 15010KT P6SM FEW020 SCT250
     FM261500 16013G17KT P6SM VCSH SCT025 BKN035
     FM261800 15018G24KT P6SM VCSH SCT040 BKN250
     FM270200 14013KT P6SM FEW020 SCT250
     FM270600 15009KT P6SM SCT020 SCT250=

USA.gov is the U.S. government's official web portal to all federal, state and local government web resources and services.